sensor_id;sensor_type;location;lat;lon;timestamp;P1;durP1;ratioP1;P2;durP2;ratioP2
18102;SDS011;9178;51.120;6.192;2024-03-29T00:01:54;4.37;;;0.80;;
18102;SDS011;9178;51.120;6.192;2024-03-29T00:04:22;4.60;;;0.77;;
18102;SDS011;9178;51.120;6.192;2024-03-29T00:06:56;3.87;;;0.70;;
18102;SDS011;9178;51.120;6.192;2024-03-29T00:09:24;1.47;;;0.60;;
18102;SDS011;9178;51.120;6.192;2024-03-29T00:11:52;2.23;;;0.70;;
18102;SDS011;9178;51.120;6.192;2024-03-29T00:14:19;4.83;;;0.70;;
18102;SDS011;9178;51.120;6.192;2024-03-29T00:16:45;1.87;;;0.60;;
18102;SDS011;9178;51.120;6.192;2024-03-29T00:19:14;1.70;;;0.67;;
18102;SDS011;9178;51.120;6.192;2024-03-29T00:21:40;2.77;;;0.50;;
18102;SDS011;9178;51.120;6.192;2024-03-29T00:24:12;2.50;;;0.53;;
18102;SDS011;9178;51.120;6.192;2024-03-29T00:26:41;2.33;;;0.43;;
18102;SDS011;9178;51.120;6.192;2024-03-29T00:29:08;2.63;;;0.60;;
18102;SDS011;9178;51.120;6.192;2024-03-29T00:31:35;1.60;;;0.60;;
18102;SDS011;9178;51.120;6.192;2024-03-29T00:34:01;2.97;;;0.60;;
18102;SDS011;9178;51.120;6.192;2024-03-29T00:36:28;4.20;;;0.60;;
18102;SDS011;9178;51.120;6.192;2024-03-29T00:38:54;2.20;;;0.50;;
18102;SDS011;9178;51.120;6.192;2024-03-29T00:41:22;2.30;;;0.73;;
18102;SDS011;9178;51.120;6.192;2024-03-29T00:43:49;3.43;;;0.73;;
18102;SDS011;9178;51.120;6.192;2024-03-29T00:46:15;1.73;;;0.53;;
18102;SDS011;9178;51.120;6.192;2024-03-29T00:48:44;2.93;;;1.07;;
18102;SDS011;9178;51.120;6.192;2024-03-29T00:51:16;3.50;;;0.60;;
18102;SDS011;9178;51.120;6.192;2024-03-29T00:53:42;0.93;;;0.60;;
18102;SDS011;9178;51.120;6.192;2024-03-29T00:56:09;2.47;;;0.70;;
18102;SDS011;9178;51.120;6.192;2024-03-29T00:58:43;0.87;;;0.50;;
18102;SDS011;9178;51.120;6.192;2024-03-29T01:01:16;3.30;;;0.70;;
18102;SDS011;9178;51.120;6.192;2024-03-29T01:03:42;1.87;;;0.50;;
18102;SDS011;9178;51.120;6.192;2024-03-29T01:06:11;1.43;;;0.40;;
18102;SDS011;9178;51.120;6.192;2024-03-29T01:08:38;2.07;;;0.50;;
18102;SDS011;9178;51.120;6.192;2024-03-29T01:11:08;5.33;;;0.60;;
18102;SDS011;9178;51.120;6.192;2024-03-29T01:13:37;2.70;;;0.50;;
18102;SDS011;9178;51.120;6.192;2024-03-29T01:16:12;2.57;;;0.80;;
18102;SDS011;9178;51.120;6.192;2024-03-29T01:18:39;2.50;;;0.67;;
18102;SDS011;9178;51.120;6.192;2024-03-29T01:21:06;2.13;;;0.60;;
18102;SDS011;9178;51.120;6.192;2024-03-29T01:23:51;2.57;;;0.80;;
18102;SDS011;9178;51.120;6.192;2024-03-29T01:26:18;1.27;;;0.60;;
18102;SDS011;9178;51.120;6.192;2024-03-29T01:28:47;1.70;;;0.47;;
18102;SDS011;9178;51.120;6.192;2024-03-29T01:31:13;3.40;;;0.80;;
18102;SDS011;9178;51.120;6.192;2024-03-29T01:33:54;1.63;;;0.60;;
18102;SDS011;9178;51.120;6.192;2024-03-29T01:36:21;3.33;;;0.70;;
18102;SDS011;9178;51.120;6.192;2024-03-29T01:38:51;1.03;;;0.57;;
18102;SDS011;9178;51.120;6.192;2024-03-29T01:41:17;2.83;;;0.60;;
18102;SDS011;9178;51.120;6.192;2024-03-29T01:43:43;3.87;;;0.80;;
18102;SDS011;9178;51.120;6.192;2024-03-29T01:46:20;3.20;;;0.90;;
18102;SDS011;9178;51.120;6.192;2024-03-29T01:48:49;2.30;;;0.60;;
18102;SDS011;9178;51.120;6.192;2024-03-29T01:51:21;3.00;;;0.60;;
18102;SDS011;9178;51.120;6.192;2024-03-29T01:53:52;3.03;;;0.63;;
18102;SDS011;9178;51.120;6.192;2024-03-29T01:56:21;1.63;;;0.53;;
18102;SDS011;9178;51.120;6.192;2024-03-29T01:58:51;1.60;;;0.60;;
18102;SDS011;9178;51.120;6.192;2024-03-29T02:01:19;2.23;;;0.80;;
18102;SDS011;9178;51.120;6.192;2024-03-29T02:03:48;1.10;;;0.53;;
18102;SDS011;9178;51.120;6.192;2024-03-29T02:06:18;1.90;;;0.70;;
18102;SDS011;9178;51.120;6.192;2024-03-29T02:08:46;2.30;;;0.70;;
18102;SDS011;9178;51.120;6.192;2024-03-29T02:11:16;3.93;;;0.77;;
18102;SDS011;9178;51.120;6.192;2024-03-29T02:13:43;5.57;;;0.80;;
18102;SDS011;9178;51.120;6.192;2024-03-29T02:16:13;1.20;;;0.80;;
18102;SDS011;9178;51.120;6.192;2024-03-29T02:18:40;2.67;;;0.57;;
18102;SDS011;9178;51.120;6.192;2024-03-29T02:21:07;0.87;;;0.53;;
18102;SDS011;9178;51.120;6.192;2024-03-29T02:23:36;2.60;;;0.63;;
18102;SDS011;9178;51.120;6.192;2024-03-29T02:26:08;6.23;;;1.00;;
18102;SDS011;9178;51.120;6.192;2024-03-29T02:28:37;0.87;;;0.43;;
18102;SDS011;9178;51.120;6.192;2024-03-29T02:31:05;1.00;;;0.57;;
18102;SDS011;9178;51.120;6.192;2024-03-29T02:33:33;1.60;;;0.60;;
18102;SDS011;9178;51.120;6.192;2024-03-29T02:35:59;0.77;;;0.50;;
18102;SDS011;9178;51.120;6.192;2024-03-29T02:38:28;2.00;;;0.60;;
18102;SDS011;9178;51.120;6.192;2024-03-29T02:40:55;1.10;;;0.57;;
18102;SDS011;9178;51.120;6.192;2024-03-29T02:43:24;1.63;;;0.73;;
18102;SDS011;9178;51.120;6.192;2024-03-29T02:45:54;1.07;;;0.40;;
18102;SDS011;9178;51.120;6.192;2024-03-29T02:48:21;3.00;;;0.53;;
18102;SDS011;9178;51.120;6.192;2024-03-29T02:50:47;2.00;;;0.40;;
18102;SDS011;9178;51.120;6.192;2024-03-29T02:53:15;3.73;;;0.60;;
18102;SDS011;9178;51.120;6.192;2024-03-29T02:55:43;0.83;;;0.40;;
18102;SDS011;9178;51.120;6.192;2024-03-29T02:58:09;1.30;;;0.47;;
18102;SDS011;9178;51.120;6.192;2024-03-29T03:00:38;1.50;;;0.60;;
18102;SDS011;9178;51.120;6.192;2024-03-29T03:03:04;2.77;;;0.40;;
18102;SDS011;9178;51.120;6.192;2024-03-29T03:05:33;0.70;;;0.40;;
18102;SDS011;9178;51.120;6.192;2024-03-29T03:08:00;1.33;;;0.40;;
18102;SDS011;9178;51.120;6.192;2024-03-29T03:10:46;0.50;;;0.40;;
18102;SDS011;9178;51.120;6.192;2024-03-29T03:13:28;0.70;;;0.43;;
18102;SDS011;9178;51.120;6.192;2024-03-29T03:15:56;1.43;;;0.50;;
18102;SDS011;9178;51.120;6.192;2024-03-29T03:18:24;1.93;;;0.40;;
18102;SDS011;9178;51.120;6.192;2024-03-29T03:20:52;0.53;;;0.30;;
18102;SDS011;9178;51.120;6.192;2024-03-29T03:23:19;1.30;;;0.30;;
18102;SDS011;9178;51.120;6.192;2024-03-29T03:25:52;2.10;;;0.70;;
18102;SDS011;9178;51.120;6.192;2024-03-29T03:28:22;1.50;;;0.47;;
18102;SDS011;9178;51.120;6.192;2024-03-29T03:30:50;1.30;;;0.57;;
18102;SDS011;9178;51.120;6.192;2024-03-29T03:33:21;1.40;;;0.50;;
18102;SDS011;9178;51.120;6.192;2024-03-29T03:35:49;1.43;;;0.50;;
18102;SDS011;9178;51.120;6.192;2024-03-29T03:38:15;2.80;;;0.47;;
18102;SDS011;9178;51.120;6.192;2024-03-29T03:40:43;1.20;;;0.50;;
18102;SDS011;9178;51.120;6.192;2024-03-29T03:43:10;1.57;;;0.60;;
18102;SDS011;9178;51.120;6.192;2024-03-29T03:45:38;0.67;;;0.27;;
18102;SDS011;9178;51.120;6.192;2024-03-29T03:48:06;1.60;;;0.40;;
18102;SDS011;9178;51.120;6.192;2024-03-29T03:50:37;0.83;;;0.40;;
18102;SDS011;9178;51.120;6.192;2024-03-29T03:53:03;0.80;;;0.50;;
18102;SDS011;9178;51.120;6.192;2024-03-29T03:55:31;3.13;;;0.40;;
18102;SDS011;9178;51.120;6.192;2024-03-29T03:58:01;0.73;;;0.33;;
18102;SDS011;9178;51.120;6.192;2024-03-29T04:00:29;1.80;;;0.60;;
18102;SDS011;9178;51.120;6.192;2024-03-29T04:02:55;2.23;;;0.60;;
18102;SDS011;9178;51.120;6.192;2024-03-29T04:05:23;1.90;;;0.53;;
18102;SDS011;9178;51.120;6.192;2024-03-29T04:07:51;1.83;;;0.60;;
18102;SDS011;9178;51.120;6.192;2024-03-29T04:10:18;4.23;;;0.60;;
18102;SDS011;9178;51.120;6.192;2024-03-29T04:12:45;0.40;;;0.30;;
18102;SDS011;9178;51.120;6.192;2024-03-29T04:15:12;0.67;;;0.50;;
18102;SDS011;9178;51.120;6.192;2024-03-29T04:17:40;0.87;;;0.60;;
18102;SDS011;9178;51.120;6.192;2024-03-29T04:20:07;1.90;;;0.60;;
18102;SDS011;9178;51.120;6.192;2024-03-29T04:22:34;0.60;;;0.53;;
18102;SDS011;9178;51.120;6.192;2024-03-29T04:25:04;2.67;;;0.60;;
18102;SDS011;9178;51.120;6.192;2024-03-29T04:27:30;2.23;;;0.67;;
18102;SDS011;9178;51.120;6.192;2024-03-29T04:29:59;2.47;;;0.90;;
18102;SDS011;9178;51.120;6.192;2024-03-29T04:32:29;1.50;;;0.87;;
18102;SDS011;9178;51.120;6.192;2024-03-29T04:34:57;1.70;;;0.90;;
18102;SDS011;9178;51.120;6.192;2024-03-29T04:37:23;1.37;;;0.63;;
18102;SDS011;9178;51.120;6.192;2024-03-29T04:39:50;0.97;;;0.60;;
18102;SDS011;9178;51.120;6.192;2024-03-29T04:42:21;2.60;;;1.40;;
18102;SDS011;9178;51.120;6.192;2024-03-29T04:44:49;2.97;;;1.30;;
18102;SDS011;9178;51.120;6.192;2024-03-29T04:47:17;1.93;;;1.20;;
18102;SDS011;9178;51.120;6.192;2024-03-29T04:49:45;1.37;;;1.03;;
18102;SDS011;9178;51.120;6.192;2024-03-29T04:52:12;1.90;;;1.03;;
18102;SDS011;9178;51.120;6.192;2024-03-29T04:54:39;1.30;;;1.00;;
18102;SDS011;9178;51.120;6.192;2024-03-29T04:57:09;1.97;;;1.20;;
18102;SDS011;9178;51.120;6.192;2024-03-29T04:59:46;2.17;;;1.00;;
18102;SDS011;9178;51.120;6.192;2024-03-29T05:02:14;1.20;;;0.90;;
18102;SDS011;9178;51.120;6.192;2024-03-29T05:04:42;2.87;;;0.80;;
18102;SDS011;9178;51.120;6.192;2024-03-29T05:07:09;1.17;;;0.83;;
18102;SDS011;9178;51.120;6.192;2024-03-29T05:09:40;1.63;;;0.83;;
18102;SDS011;9178;51.120;6.192;2024-03-29T05:12:10;1.23;;;0.80;;
18102;SDS011;9178;51.120;6.192;2024-03-29T05:14:40;1.10;;;0.57;;
18102;SDS011;9178;51.120;6.192;2024-03-29T05:17:10;1.83;;;0.50;;
18102;SDS011;9178;51.120;6.192;2024-03-29T05:19:38;1.40;;;0.60;;
18102;SDS011;9178;51.120;6.192;2024-03-29T05:22:05;1.40;;;0.83;;
18102;SDS011;9178;51.120;6.192;2024-03-29T05:24:32;3.63;;;1.97;;
18102;SDS011;9178;51.120;6.192;2024-03-29T05:27:00;2.73;;;1.07;;
18102;SDS011;9178;51.120;6.192;2024-03-29T05:29:30;1.20;;;0.60;;
18102;SDS011;9178;51.120;6.192;2024-03-29T05:32:13;1.70;;;0.57;;
18102;SDS011;9178;51.120;6.192;2024-03-29T05:34:41;3.73;;;0.73;;
18102;SDS011;9178;51.120;6.192;2024-03-29T05:37:08;2.20;;;0.83;;
18102;SDS011;9178;51.120;6.192;2024-03-29T05:39:35;2.23;;;0.70;;
18102;SDS011;9178;51.120;6.192;2024-03-29T05:42:05;1.73;;;0.60;;
18102;SDS011;9178;51.120;6.192;2024-03-29T05:44:32;2.57;;;0.73;;
18102;SDS011;9178;51.120;6.192;2024-03-29T05:47:01;3.33;;;0.80;;
18102;SDS011;9178;51.120;6.192;2024-03-29T05:49:31;1.03;;;0.67;;
18102;SDS011;9178;51.120;6.192;2024-03-29T05:52:02;2.23;;;0.80;;
18102;SDS011;9178;51.120;6.192;2024-03-29T05:54:32;3.63;;;1.10;;
18102;SDS011;9178;51.120;6.192;2024-03-29T05:57:04;1.07;;;0.80;;
18102;SDS011;9178;51.120;6.192;2024-03-29T05:59:35;2.83;;;0.80;;
18102;SDS011;9178;51.120;6.192;2024-03-29T06:02:05;1.53;;;0.70;;
18102;SDS011;9178;51.120;6.192;2024-03-29T06:04:36;2.37;;;1.10;;
18102;SDS011;9178;51.120;6.192;2024-03-29T06:07:04;2.27;;;0.80;;
18102;SDS011;9178;51.120;6.192;2024-03-29T06:09:36;3.03;;;0.80;;
18102;SDS011;9178;51.120;6.192;2024-03-29T06:12:06;2.60;;;1.10;;
18102;SDS011;9178;51.120;6.192;2024-03-29T06:14:42;4.90;;;1.23;;
18102;SDS011;9178;51.120;6.192;2024-03-29T06:17:27;1.27;;;0.80;;
18102;SDS011;9178;51.120;6.192;2024-03-29T06:20:00;3.20;;;0.77;;
18102;SDS011;9178;51.120;6.192;2024-03-29T06:22:29;3.77;;;0.93;;
18102;SDS011;9178;51.120;6.192;2024-03-29T06:24:57;2.80;;;1.43;;
18102;SDS011;9178;51.120;6.192;2024-03-29T06:27:29;5.33;;;1.10;;
18102;SDS011;9178;51.120;6.192;2024-03-29T06:29:57;2.40;;;0.67;;
18102;SDS011;9178;51.120;6.192;2024-03-29T06:32:25;4.87;;;1.10;;
18102;SDS011;9178;51.120;6.192;2024-03-29T06:34:54;2.93;;;0.90;;
18102;SDS011;9178;51.120;6.192;2024-03-29T06:37:23;2.30;;;0.90;;
18102;SDS011;9178;51.120;6.192;2024-03-29T06:39:50;2.37;;;1.20;;
18102;SDS011;9178;51.120;6.192;2024-03-29T06:42:18;3.20;;;0.90;;
18102;SDS011;9178;51.120;6.192;2024-03-29T06:44:45;2.47;;;1.23;;
18102;SDS011;9178;51.120;6.192;2024-03-29T06:47:12;2.23;;;1.10;;
18102;SDS011;9178;51.120;6.192;2024-03-29T06:49:40;2.73;;;0.90;;
18102;SDS011;9178;51.120;6.192;2024-03-29T06:52:07;1.97;;;0.90;;
18102;SDS011;9178;51.120;6.192;2024-03-29T06:54:36;3.10;;;0.87;;
18102;SDS011;9178;51.120;6.192;2024-03-29T06:57:03;2.33;;;1.10;;
18102;SDS011;9178;51.120;6.192;2024-03-29T06:59:31;3.53;;;1.03;;
18102;SDS011;9178;51.120;6.192;2024-03-29T07:01:59;3.53;;;1.03;;
18102;SDS011;9178;51.120;6.192;2024-03-29T07:04:26;1.87;;;1.10;;
18102;SDS011;9178;51.120;6.192;2024-03-29T07:06:54;4.27;;;1.30;;
18102;SDS011;9178;51.120;6.192;2024-03-29T07:09:21;2.63;;;0.80;;
18102;SDS011;9178;51.120;6.192;2024-03-29T07:11:51;1.30;;;0.77;;
18102;SDS011;9178;51.120;6.192;2024-03-29T07:14:20;1.70;;;0.93;;
18102;SDS011;9178;51.120;6.192;2024-03-29T07:16:51;3.67;;;0.90;;
18102;SDS011;9178;51.120;6.192;2024-03-29T07:19:19;1.73;;;1.00;;
18102;SDS011;9178;51.120;6.192;2024-03-29T07:21:47;2.83;;;0.93;;
18102;SDS011;9178;51.120;6.192;2024-03-29T07:24:16;4.20;;;1.17;;
18102;SDS011;9178;51.120;6.192;2024-03-29T07:26:45;4.33;;;1.00;;
18102;SDS011;9178;51.120;6.192;2024-03-29T07:29:14;3.33;;;1.07;;
18102;SDS011;9178;51.120;6.192;2024-03-29T07:31:43;1.53;;;1.00;;
18102;SDS011;9178;51.120;6.192;2024-03-29T07:34:09;2.63;;;1.10;;
18102;SDS011;9178;51.120;6.192;2024-03-29T07:36:39;2.27;;;1.00;;
18102;SDS011;9178;51.120;6.192;2024-03-29T07:39:08;2.27;;;0.90;;
18102;SDS011;9178;51.120;6.192;2024-03-29T07:41:36;2.30;;;1.03;;
18102;SDS011;9178;51.120;6.192;2024-03-29T07:44:05;3.17;;;1.00;;
18102;SDS011;9178;51.120;6.192;2024-03-29T07:46:35;2.57;;;1.00;;
18102;SDS011;9178;51.120;6.192;2024-03-29T07:49:05;2.70;;;1.00;;
18102;SDS011;9178;51.120;6.192;2024-03-29T07:51:34;2.07;;;0.80;;
18102;SDS011;9178;51.120;6.192;2024-03-29T07:54:04;2.87;;;1.20;;
18102;SDS011;9178;51.120;6.192;2024-03-29T07:56:31;1.97;;;0.90;;
18102;SDS011;9178;51.120;6.192;2024-03-29T07:58:59;2.70;;;0.83;;
18102;SDS011;9178;51.120;6.192;2024-03-29T08:01:29;1.70;;;1.20;;
18102;SDS011;9178;51.120;6.192;2024-03-29T08:03:58;1.53;;;0.90;;
18102;SDS011;9178;51.120;6.192;2024-03-29T08:06:28;1.83;;;1.10;;
18102;SDS011;9178;51.120;6.192;2024-03-29T08:08:56;4.47;;;1.10;;
18102;SDS011;9178;51.120;6.192;2024-03-29T08:11:24;3.83;;;1.33;;
18102;SDS011;9178;51.120;6.192;2024-03-29T08:13:51;1.40;;;1.03;;
18102;SDS011;9178;51.120;6.192;2024-03-29T08:16:18;3.80;;;1.37;;
18102;SDS011;9178;51.120;6.192;2024-03-29T08:18:50;1.40;;;1.03;;
18102;SDS011;9178;51.120;6.192;2024-03-29T08:21:19;1.53;;;1.10;;
18102;SDS011;9178;51.120;6.192;2024-03-29T08:23:46;2.17;;;1.30;;
18102;SDS011;9178;51.120;6.192;2024-03-29T08:26:15;2.50;;;1.20;;
18102;SDS011;9178;51.120;6.192;2024-03-29T08:28:44;1.87;;;1.13;;
18102;SDS011;9178;51.120;6.192;2024-03-29T08:31:12;1.47;;;1.23;;
18102;SDS011;9178;51.120;6.192;2024-03-29T08:33:39;2.30;;;1.30;;
18102;SDS011;9178;51.120;6.192;2024-03-29T08:36:08;2.07;;;0.97;;
18102;SDS011;9178;51.120;6.192;2024-03-29T08:38:38;2.67;;;1.23;;
18102;SDS011;9178;51.120;6.192;2024-03-29T08:41:08;2.40;;;1.10;;
18102;SDS011;9178;51.120;6.192;2024-03-29T08:43:35;1.83;;;0.90;;
18102;SDS011;9178;51.120;6.192;2024-03-29T08:46:02;1.73;;;0.90;;
18102;SDS011;9178;51.120;6.192;2024-03-29T08:48:30;1.17;;;0.90;;
18102;SDS011;9178;51.120;6.192;2024-03-29T08:50:58;3.40;;;0.87;;
18102;SDS011;9178;51.120;6.192;2024-03-29T08:53:25;0.83;;;0.70;;
18102;SDS011;9178;51.120;6.192;2024-03-29T08:55:54;1.37;;;0.90;;
18102;SDS011;9178;51.120;6.192;2024-03-29T08:58:21;1.20;;;0.60;;
18102;SDS011;9178;51.120;6.192;2024-03-29T09:00:52;1.63;;;0.90;;
18102;SDS011;9178;51.120;6.192;2024-03-29T09:03:20;1.17;;;0.70;;
18102;SDS011;9178;51.120;6.192;2024-03-29T09:05:48;1.60;;;0.60;;
18102;SDS011;9178;51.120;6.192;2024-03-29T09:08:17;0.87;;;0.53;;
18102;SDS011;9178;51.120;6.192;2024-03-29T09:10:44;1.77;;;0.60;;
18102;SDS011;9178;51.120;6.192;2024-03-29T09:13:13;1.47;;;0.80;;
18102;SDS011;9178;51.120;6.192;2024-03-29T09:15:41;1.57;;;0.70;;
18102;SDS011;9178;51.120;6.192;2024-03-29T09:18:10;2.23;;;0.70;;
18102;SDS011;9178;51.120;6.192;2024-03-29T09:20:55;1.17;;;0.70;;
18102;SDS011;9178;51.120;6.192;2024-03-29T09:23:24;1.13;;;0.60;;
18102;SDS011;9178;51.120;6.192;2024-03-29T09:25:53;1.97;;;0.70;;
18102;SDS011;9178;51.120;6.192;2024-03-29T09:28:23;1.63;;;0.87;;
18102;SDS011;9178;51.120;6.192;2024-03-29T09:30:50;0.70;;;0.60;;
18102;SDS011;9178;51.120;6.192;2024-03-29T09:33:25;1.50;;;0.67;;
18102;SDS011;9178;51.120;6.192;2024-03-29T09:35:52;1.20;;;0.67;;
18102;SDS011;9178;51.120;6.192;2024-03-29T09:38:25;0.70;;;0.60;;
18102;SDS011;9178;51.120;6.192;2024-03-29T09:41:01;2.17;;;0.70;;
18102;SDS011;9178;51.120;6.192;2024-03-29T09:43:40;0.93;;;0.60;;
18102;SDS011;9178;51.120;6.192;2024-03-29T09:46:10;1.83;;;0.70;;
18102;SDS011;9178;51.120;6.192;2024-03-29T09:48:38;2.73;;;0.70;;
18102;SDS011;9178;51.120;6.192;2024-03-29T09:51:08;0.93;;;0.40;;
18102;SDS011;9178;51.120;6.192;2024-03-29T09:53:41;0.40;;;0.30;;
18102;SDS011;9178;51.120;6.192;2024-03-29T09:56:12;0.60;;;0.50;;
18102;SDS011;9178;51.120;6.192;2024-03-29T09:58:42;0.63;;;0.40;;
18102;SDS011;9178;51.120;6.192;2024-03-29T10:01:10;0.83;;;0.50;;
18102;SDS011;9178;51.120;6.192;2024-03-29T10:03:38;0.97;;;0.40;;
18102;SDS011;9178;51.120;6.192;2024-03-29T10:06:08;0.50;;;0.50;;
18102;SDS011;9178;51.120;6.192;2024-03-29T10:08:39;0.40;;;0.40;;
18102;SDS011;9178;51.120;6.192;2024-03-29T10:11:06;1.10;;;0.40;;
18102;SDS011;9178;51.120;6.192;2024-03-29T10:13:34;1.50;;;0.50;;
18102;SDS011;9178;51.120;6.192;2024-03-29T10:16:09;1.07;;;0.47;;
18102;SDS011;9178;51.120;6.192;2024-03-29T10:18:47;1.50;;;0.57;;
18102;SDS011;9178;51.120;6.192;2024-03-29T10:21:28;1.27;;;0.40;;
18102;SDS011;9178;51.120;6.192;2024-03-29T10:23:56;0.67;;;0.40;;
18102;SDS011;9178;51.120;6.192;2024-03-29T10:26:23;2.37;;;0.40;;
18102;SDS011;9178;51.120;6.192;2024-03-29T10:28:51;2.23;;;0.40;;
18102;SDS011;9178;51.120;6.192;2024-03-29T10:31:23;1.60;;;0.40;;
18102;SDS011;9178;51.120;6.192;2024-03-29T10:33:50;1.37;;;0.60;;
18102;SDS011;9178;51.120;6.192;2024-03-29T10:36:19;0.40;;;0.30;;
18102;SDS011;9178;51.120;6.192;2024-03-29T10:39:00;0.93;;;0.40;;
18102;SDS011;9178;51.120;6.192;2024-03-29T10:41:38;0.40;;;0.38;;
18102;SDS011;9178;51.120;6.192;2024-03-29T10:44:08;0.30;;;0.30;;
18102;SDS011;9178;51.120;6.192;2024-03-29T10:46:46;0.57;;;0.50;;
18102;SDS011;9178;51.120;6.192;2024-03-29T10:49:17;1.02;;;0.25;;
18102;SDS011;9178;51.120;6.192;2024-03-29T10:51:51;3.05;;;0.70;;
18102;SDS011;9178;51.120;6.192;2024-03-29T10:54:22;0.50;;;0.50;;
18102;SDS011;9178;51.120;6.192;2024-03-29T10:56:56;0.73;;;0.40;;
18102;SDS011;9178;51.120;6.192;2024-03-29T10:59:38;2.72;;;0.45;;
18102;SDS011;9178;51.120;6.192;2024-03-29T11:02:13;2.97;;;0.50;;
18102;SDS011;9178;51.120;6.192;2024-03-29T11:04:53;1.73;;;0.57;;
18102;SDS011;9178;51.120;6.192;2024-03-29T11:07:22;0.60;;;0.40;;
18102;SDS011;9178;51.120;6.192;2024-03-29T11:09:50;1.17;;;0.55;;
18102;SDS011;9178;51.120;6.192;2024-03-29T11:12:23;3.30;;;1.10;;
18102;SDS011;9178;51.120;6.192;2024-03-29T11:14:53;1.10;;;0.40;;
18102;SDS011;9178;51.120;6.192;2024-03-29T11:17:32;0.98;;;0.38;;
18102;SDS011;9178;51.120;6.192;2024-03-29T11:20:01;0.60;;;0.30;;
18102;SDS011;9178;51.120;6.192;2024-03-29T11:22:30;1.10;;;0.47;;
18102;SDS011;9178;51.120;6.192;2024-03-29T11:25:01;2.17;;;0.40;;
18102;SDS011;9178;51.120;6.192;2024-03-29T11:27:29;1.27;;;0.38;;
18102;SDS011;9178;51.120;6.192;2024-03-29T11:29:57;1.10;;;0.50;;
18102;SDS011;9178;51.120;6.192;2024-03-29T11:32:35;0.63;;;0.30;;
18102;SDS011;9178;51.120;6.192;2024-03-29T11:35:04;1.20;;;0.50;;
18102;SDS011;9178;51.120;6.192;2024-03-29T11:37:41;0.20;;;0.20;;
18102;SDS011;9178;51.120;6.192;2024-03-29T11:40:10;0.55;;;0.35;;
18102;SDS011;9178;51.120;6.192;2024-03-29T11:42:47;0.20;;;0.20;;
18102;SDS011;9178;51.120;6.192;2024-03-29T11:45:14;0.63;;;0.30;;
18102;SDS011;9178;51.120;6.192;2024-03-29T11:47:45;1.90;;;0.57;;
18102;SDS011;9178;51.120;6.192;2024-03-29T11:50:13;0.68;;;0.40;;
18102;SDS011;9178;51.120;6.192;2024-03-29T11:52:41;2.10;;;0.32;;
18102;SDS011;9178;51.120;6.192;2024-03-29T11:55:10;1.05;;;0.57;;
18102;SDS011;9178;51.120;6.192;2024-03-29T11:57:37;0.95;;;0.50;;
18102;SDS011;9178;51.120;6.192;2024-03-29T12:00:12;0.93;;;0.40;;
18102;SDS011;9178;51.120;6.192;2024-03-29T12:02:42;0.55;;;0.22;;
18102;SDS011;9178;51.120;6.192;2024-03-29T12:05:12;0.88;;;0.50;;
18102;SDS011;9178;51.120;6.192;2024-03-29T12:07:41;0.60;;;0.40;;
18102;SDS011;9178;51.120;6.192;2024-03-29T12:10:12;1.00;;;0.30;;
18102;SDS011;9178;51.120;6.192;2024-03-29T12:12:40;1.55;;;0.60;;
18102;SDS011;9178;51.120;6.192;2024-03-29T12:15:09;1.73;;;0.35;;
18102;SDS011;9178;51.120;6.192;2024-03-29T12:17:36;0.70;;;0.40;;
18102;SDS011;9178;51.120;6.192;2024-03-29T12:20:06;0.50;;;0.30;;
18102;SDS011;9178;51.120;6.192;2024-03-29T12:22:37;0.85;;;0.50;;
18102;SDS011;9178;51.120;6.192;2024-03-29T12:25:05;1.00;;;0.40;;
18102;SDS011;9178;51.120;6.192;2024-03-29T12:27:35;1.08;;;0.45;;
18102;SDS011;9178;51.120;6.192;2024-03-29T12:30:03;0.70;;;0.30;;
18102;SDS011;9178;51.120;6.192;2024-03-29T12:32:31;0.80;;;0.40;;
18102;SDS011;9178;51.120;6.192;2024-03-29T12:35:09;0.32;;;0.30;;
18102;SDS011;9178;51.120;6.192;2024-03-29T12:37:38;0.40;;;0.40;;
18102;SDS011;9178;51.120;6.192;2024-03-29T12:40:15;0.82;;;0.40;;
18102;SDS011;9178;51.120;6.192;2024-03-29T12:42:50;0.93;;;0.38;;
18102;SDS011;9178;51.120;6.192;2024-03-29T12:45:20;0.80;;;0.30;;
18102;SDS011;9178;51.120;6.192;2024-03-29T12:47:50;0.52;;;0.40;;
18102;SDS011;9178;51.120;6.192;2024-03-29T12:50:25;2.80;;;0.45;;
18102;SDS011;9178;51.120;6.192;2024-03-29T12:52:53;0.82;;;0.30;;
18102;SDS011;9178;51.120;6.192;2024-03-29T12:55:22;0.68;;;0.32;;
18102;SDS011;9178;51.120;6.192;2024-03-29T12:57:50;1.45;;;0.28;;
18102;SDS011;9178;51.120;6.192;2024-03-29T13:00:19;0.90;;;0.50;;
18102;SDS011;9178;51.120;6.192;2024-03-29T13:02:47;1.23;;;0.30;;
18102;SDS011;9178;51.120;6.192;2024-03-29T13:05:14;0.73;;;0.45;;
18102;SDS011;9178;51.120;6.192;2024-03-29T13:07:43;3.42;;;0.40;;
18102;SDS011;9178;51.120;6.192;2024-03-29T13:10:11;0.90;;;0.50;;
18102;SDS011;9178;51.120;6.192;2024-03-29T13:12:46;0.65;;;0.45;;
18102;SDS011;9178;51.120;6.192;2024-03-29T13:15:17;0.93;;;0.45;;
18102;SDS011;9178;51.120;6.192;2024-03-29T13:17:46;0.60;;;0.30;;
18102;SDS011;9178;51.120;6.192;2024-03-29T13:20:15;1.33;;;0.40;;
18102;SDS011;9178;51.120;6.192;2024-03-29T13:22:44;1.15;;;0.50;;
18102;SDS011;9178;51.120;6.192;2024-03-29T13:25:14;1.40;;;0.30;;
18102;SDS011;9178;51.120;6.192;2024-03-29T13:27:42;0.85;;;0.30;;
18102;SDS011;9178;51.120;6.192;2024-03-29T13:30:13;1.63;;;0.30;;
18102;SDS011;9178;51.120;6.192;2024-03-29T13:32:41;0.80;;;0.40;;
18102;SDS011;9178;51.120;6.192;2024-03-29T13:35:09;0.40;;;0.30;;
18102;SDS011;9178;51.120;6.192;2024-03-29T13:37:39;1.38;;;0.38;;
18102;SDS011;9178;51.120;6.192;2024-03-29T13:40:12;0.38;;;0.32;;
18102;SDS011;9178;51.120;6.192;2024-03-29T13:42:42;0.60;;;0.30;;
18102;SDS011;9178;51.120;6.192;2024-03-29T13:45:10;1.95;;;0.30;;
18102;SDS011;9178;51.120;6.192;2024-03-29T13:47:39;1.05;;;0.68;;
18102;SDS011;9178;51.120;6.192;2024-03-29T13:50:11;1.08;;;0.20;;
18102;SDS011;9178;51.120;6.192;2024-03-29T13:52:40;0.60;;;0.30;;
18102;SDS011;9178;51.120;6.192;2024-03-29T13:55:08;0.40;;;0.20;;
18102;SDS011;9178;51.120;6.192;2024-03-29T13:57:37;2.22;;;0.30;;
18102;SDS011;9178;51.120;6.192;2024-03-29T14:00:06;0.60;;;0.40;;
18102;SDS011;9178;51.120;6.192;2024-03-29T14:02:38;0.98;;;0.20;;
18102;SDS011;9178;51.120;6.192;2024-03-29T14:05:05;0.68;;;0.30;;
18102;SDS011;9178;51.120;6.192;2024-03-29T14:07:33;0.80;;;0.28;;
18102;SDS011;9178;51.120;6.192;2024-03-29T14:10:00;0.50;;;0.30;;
18102;SDS011;9178;51.120;6.192;2024-03-29T14:12:29;0.70;;;0.22;;
18102;SDS011;9178;51.120;6.192;2024-03-29T14:14:58;1.88;;;0.52;;
18102;SDS011;9178;51.120;6.192;2024-03-29T14:17:26;1.95;;;0.43;;
18102;SDS011;9178;51.120;6.192;2024-03-29T14:19:54;0.65;;;0.32;;
18102;SDS011;9178;51.120;6.192;2024-03-29T14:22:21;0.40;;;0.20;;
18102;SDS011;9178;51.120;6.192;2024-03-29T14:24:49;0.20;;;0.20;;
18102;SDS011;9178;51.120;6.192;2024-03-29T14:27:17;0.90;;;0.32;;
18102;SDS011;9178;51.120;6.192;2024-03-29T14:29:44;0.80;;;0.30;;
18102;SDS011;9178;51.120;6.192;2024-03-29T14:32:13;0.65;;;0.30;;
18102;SDS011;9178;51.120;6.192;2024-03-29T14:34:40;0.10;;;0.10;;
18102;SDS011;9178;51.120;6.192;2024-03-29T14:37:15;0.55;;;0.38;;
18102;SDS011;9178;51.120;6.192;2024-03-29T14:39:44;1.58;;;0.22;;
18102;SDS011;9178;51.120;6.192;2024-03-29T14:42:22;0.30;;;0.30;;
18102;SDS011;9178;51.120;6.192;2024-03-29T14:44:49;2.00;;;0.30;;
18102;SDS011;9178;51.120;6.192;2024-03-29T14:47:18;1.55;;;0.20;;
18102;SDS011;9178;51.120;6.192;2024-03-29T14:49:46;0.80;;;0.35;;
18102;SDS011;9178;51.120;6.192;2024-03-29T14:52:16;1.10;;;0.35;;
18102;SDS011;9178;51.120;6.192;2024-03-29T14:54:44;0.22;;;0.20;;
18102;SDS011;9178;51.120;6.192;2024-03-29T14:57:11;0.30;;;0.30;;
18102;SDS011;9178;51.120;6.192;2024-03-29T14:59:44;1.02;;;0.30;;
18102;SDS011;9178;51.120;6.192;2024-03-29T15:02:11;0.80;;;0.40;;
18102;SDS011;9178;51.120;6.192;2024-03-29T15:04:40;0.55;;;0.40;;
18102;SDS011;9178;51.120;6.192;2024-03-29T15:07:07;1.23;;;0.35;;
18102;SDS011;9178;51.120;6.192;2024-03-29T15:09:34;0.88;;;0.32;;
18102;SDS011;9178;51.120;6.192;2024-03-29T15:12:02;0.77;;;0.43;;
18102;SDS011;9178;51.120;6.192;2024-03-29T15:14:30;1.02;;;0.40;;